sensor_id;sensor_type;location;lat;lon;timestamp;P1;durP1;ratioP1;P2;durP2;ratioP2
33740;SDS011;20065;48.380;10.892;2023-05-07T00:00:30;14.70;;;10.83;;
33740;SDS011;20065;48.380;10.892;2023-05-07T00:03:16;16.40;;;10.73;;
33740;SDS011;20065;48.380;10.892;2023-05-07T00:06:02;17.30;;;10.20;;
33740;SDS011;20065;48.380;10.892;2023-05-07T00:08:49;14.50;;;10.70;;
33740;SDS011;20065;48.380;10.892;2023-05-07T00:11:35;11.90;;;8.10;;
33740;SDS011;20065;48.380;10.892;2023-05-07T00:14:21;18.03;;;10.30;;
33740;SDS011;20065;48.380;10.892;2023-05-07T00:17:07;14.37;;;9.47;;
33740;SDS011;20065;48.380;10.892;2023-05-07T00:19:53;11.70;;;8.57;;
33740;SDS011;20065;48.380;10.892;2023-05-07T00:22:40;9.20;;;7.60;;
33740;SDS011;20065;48.380;10.892;2023-05-07T00:25:26;14.83;;;9.13;;
33740;SDS011;20065;48.380;10.892;2023-05-07T00:28:12;15.73;;;10.23;;
33740;SDS011;20065;48.380;10.892;2023-05-07T00:30:58;13.90;;;10.10;;
33740;SDS011;20065;48.380;10.892;2023-05-07T00:33:45;12.90;;;8.90;;
33740;SDS011;20065;48.380;10.892;2023-05-07T00:36:31;16.13;;;10.60;;
33740;SDS011;20065;48.380;10.892;2023-05-07T00:39:17;12.23;;;8.87;;
33740;SDS011;20065;48.380;10.892;2023-05-07T00:42:03;15.20;;;10.53;;
33740;SDS011;20065;48.380;10.892;2023-05-07T00:44:50;16.90;;;10.53;;
33740;SDS011;20065;48.380;10.892;2023-05-07T00:47:36;15.73;;;10.57;;
33740;SDS011;20065;48.380;10.892;2023-05-07T00:50:22;16.67;;;10.67;;
33740;SDS011;20065;48.380;10.892;2023-05-07T00:53:09;17.10;;;10.90;;
33740;SDS011;20065;48.380;10.892;2023-05-07T00:55:55;14.13;;;10.30;;
33740;SDS011;20065;48.380;10.892;2023-05-07T00:58:42;16.63;;;10.20;;
33740;SDS011;20065;48.380;10.892;2023-05-07T01:01:29;15.30;;;9.70;;
33740;SDS011;20065;48.380;10.892;2023-05-07T01:04:16;15.00;;;11.00;;
33740;SDS011;20065;48.380;10.892;2023-05-07T01:07:02;11.37;;;9.60;;
33740;SDS011;20065;48.380;10.892;2023-05-07T01:09:50;13.33;;;9.10;;
33740;SDS011;20065;48.380;10.892;2023-05-07T01:12:37;13.43;;;9.40;;
33740;SDS011;20065;48.380;10.892;2023-05-07T01:15:25;12.53;;;8.87;;
33740;SDS011;20065;48.380;10.892;2023-05-07T01:18:11;11.83;;;8.50;;
33740;SDS011;20065;48.380;10.892;2023-05-07T01:20:58;10.70;;;7.90;;
33740;SDS011;20065;48.380;10.892;2023-05-07T01:23:47;14.33;;;7.93;;
33740;SDS011;20065;48.380;10.892;2023-05-07T01:26:33;9.83;;;7.90;;
33740;SDS011;20065;48.380;10.892;2023-05-07T01:29:20;11.23;;;7.30;;
33740;SDS011;20065;48.380;10.892;2023-05-07T01:32:06;8.90;;;7.20;;
33740;SDS011;20065;48.380;10.892;2023-05-07T01:34:53;9.50;;;7.50;;
33740;SDS011;20065;48.380;10.892;2023-05-07T01:37:41;10.23;;;8.27;;
33740;SDS011;20065;48.380;10.892;2023-05-07T01:40:27;9.60;;;7.80;;
33740;SDS011;20065;48.380;10.892;2023-05-07T01:43:13;9.60;;;7.10;;
33740;SDS011;20065;48.380;10.892;2023-05-07T01:46:01;8.20;;;6.53;;
33740;SDS011;20065;48.380;10.892;2023-05-07T01:48:49;8.67;;;6.73;;
33740;SDS011;20065;48.380;10.892;2023-05-07T01:51:36;9.67;;;7.00;;
33740;SDS011;20065;48.380;10.892;2023-05-07T01:54:26;10.13;;;7.47;;
33740;SDS011;20065;48.380;10.892;2023-05-07T01:57:17;10.90;;;7.43;;
33740;SDS011;20065;48.380;10.892;2023-05-07T02:00:03;9.47;;;6.50;;
33740;SDS011;20065;48.380;10.892;2023-05-07T02:03:00;11.40;;;7.60;;
33740;SDS011;20065;48.380;10.892;2023-05-07T02:05:59;12.90;;;8.30;;
33740;SDS011;20065;48.380;10.892;2023-05-07T02:08:53;9.63;;;8.00;;
33740;SDS011;20065;48.380;10.892;2023-05-07T02:11:39;10.10;;;7.63;;
33740;SDS011;20065;48.380;10.892;2023-05-07T02:14:26;12.40;;;8.13;;
33740;SDS011;20065;48.380;10.892;2023-05-07T02:17:12;8.80;;;7.37;;
33740;SDS011;20065;48.380;10.892;2023-05-07T02:19:59;9.40;;;7.50;;
33740;SDS011;20065;48.380;10.892;2023-05-07T02:22:45;12.30;;;8.40;;
33740;SDS011;20065;48.380;10.892;2023-05-07T02:25:31;10.03;;;7.30;;
33740;SDS011;20065;48.380;10.892;2023-05-07T02:28:18;10.47;;;7.77;;
33740;SDS011;20065;48.380;10.892;2023-05-07T02:31:11;10.73;;;7.47;;
33740;SDS011;20065;48.380;10.892;2023-05-07T02:33:57;11.47;;;7.60;;
33740;SDS011;20065;48.380;10.892;2023-05-07T02:36:44;21.23;;;9.00;;
33740;SDS011;20065;48.380;10.892;2023-05-07T02:39:33;10.43;;;7.97;;
33740;SDS011;20065;48.380;10.892;2023-05-07T02:42:19;10.07;;;8.90;;
33740;SDS011;20065;48.380;10.892;2023-05-07T02:45:06;10.70;;;8.77;;
33740;SDS011;20065;48.380;10.892;2023-05-07T02:47:53;11.63;;;9.80;;
33740;SDS011;20065;48.380;10.892;2023-05-07T02:50:40;19.80;;;9.40;;
33740;SDS011;20065;48.380;10.892;2023-05-07T02:53:26;12.43;;;9.27;;
33740;SDS011;20065;48.380;10.892;2023-05-07T02:56:13;10.87;;;8.10;;
33740;SDS011;20065;48.380;10.892;2023-05-07T02:58:59;11.67;;;9.43;;
33740;SDS011;20065;48.380;10.892;2023-05-07T03:01:49;10.17;;;8.40;;
33740;SDS011;20065;48.380;10.892;2023-05-07T03:04:35;9.70;;;7.87;;
33740;SDS011;20065;48.380;10.892;2023-05-07T03:07:21;10.57;;;7.87;;
33740;SDS011;20065;48.380;10.892;2023-05-07T03:10:08;10.33;;;8.00;;
33740;SDS011;20065;48.380;10.892;2023-05-07T03:12:54;9.13;;;8.17;;
33740;SDS011;20065;48.380;10.892;2023-05-07T03:15:41;11.90;;;8.53;;
33740;SDS011;20065;48.380;10.892;2023-05-07T03:18:27;9.27;;;7.23;;
33740;SDS011;20065;48.380;10.892;2023-05-07T03:21:13;9.43;;;8.00;;
33740;SDS011;20065;48.380;10.892;2023-05-07T03:24:00;10.37;;;7.40;;
33740;SDS011;20065;48.380;10.892;2023-05-07T03:26:46;10.53;;;8.80;;
33740;SDS011;20065;48.380;10.892;2023-05-07T03:29:33;11.30;;;8.23;;
33740;SDS011;20065;48.380;10.892;2023-05-07T03:32:19;10.53;;;8.50;;
33740;SDS011;20065;48.380;10.892;2023-05-07T03:35:05;12.93;;;8.50;;
33740;SDS011;20065;48.380;10.892;2023-05-07T03:37:52;10.53;;;8.80;;
33740;SDS011;20065;48.380;10.892;2023-05-07T03:40:40;13.27;;;8.53;;
33740;SDS011;20065;48.380;10.892;2023-05-07T03:43:26;10.77;;;7.43;;
33740;SDS011;20065;48.380;10.892;2023-05-07T03:46:20;9.20;;;7.17;;
33740;SDS011;20065;48.380;10.892;2023-05-07T03:49:07;12.13;;;6.80;;
33740;SDS011;20065;48.380;10.892;2023-05-07T03:51:53;10.00;;;7.20;;
33740;SDS011;20065;48.380;10.892;2023-05-07T03:54:40;14.23;;;7.87;;
33740;SDS011;20065;48.380;10.892;2023-05-07T03:57:26;9.10;;;6.60;;
33740;SDS011;20065;48.380;10.892;2023-05-07T04:00:15;11.07;;;7.13;;
33740;SDS011;20065;48.380;10.892;2023-05-07T04:03:08;10.40;;;7.30;;
33740;SDS011;20065;48.380;10.892;2023-05-07T04:05:54;8.40;;;6.47;;
33740;SDS011;20065;48.380;10.892;2023-05-07T04:08:41;8.07;;;6.43;;
33740;SDS011;20065;48.380;10.892;2023-05-07T04:11:27;9.60;;;6.97;;
33740;SDS011;20065;48.380;10.892;2023-05-07T04:14:13;11.23;;;6.50;;
33740;SDS011;20065;48.380;10.892;2023-05-07T04:17:00;9.43;;;6.27;;
33740;SDS011;20065;48.380;10.892;2023-05-07T04:19:47;7.20;;;5.07;;
33740;SDS011;20065;48.380;10.892;2023-05-07T04:22:34;9.07;;;5.77;;
33740;SDS011;20065;48.380;10.892;2023-05-07T04:25:22;8.40;;;6.60;;
33740;SDS011;20065;48.380;10.892;2023-05-07T04:28:12;12.27;;;5.67;;
33740;SDS011;20065;48.380;10.892;2023-05-07T04:31:00;10.27;;;5.93;;
33740;SDS011;20065;48.380;10.892;2023-05-07T04:33:47;7.70;;;6.00;;
33740;SDS011;20065;48.380;10.892;2023-05-07T04:36:35;8.70;;;6.40;;
33740;SDS011;20065;48.380;10.892;2023-05-07T04:39:26;9.50;;;6.80;;
33740;SDS011;20065;48.380;10.892;2023-05-07T04:42:16;8.00;;;5.97;;
33740;SDS011;20065;48.380;10.892;2023-05-07T04:45:03;7.80;;;6.13;;
33740;SDS011;20065;48.380;10.892;2023-05-07T04:47:52;8.30;;;6.47;;
33740;SDS011;20065;48.380;10.892;2023-05-07T04:50:39;9.77;;;6.10;;
33740;SDS011;20065;48.380;10.892;2023-05-07T04:53:26;7.23;;;5.77;;
33740;SDS011;20065;48.380;10.892;2023-05-07T04:56:14;10.03;;;5.87;;
33740;SDS011;20065;48.380;10.892;2023-05-07T04:59:03;9.20;;;7.07;;
33740;SDS011;20065;48.380;10.892;2023-05-07T05:01:50;9.30;;;7.30;;
33740;SDS011;20065;48.380;10.892;2023-05-07T05:04:37;8.40;;;6.47;;
33740;SDS011;20065;48.380;10.892;2023-05-07T05:07:24;8.50;;;7.03;;
33740;SDS011;20065;48.380;10.892;2023-05-07T05:10:11;9.23;;;6.30;;
33740;SDS011;20065;48.380;10.892;2023-05-07T05:12:59;9.70;;;6.70;;
33740;SDS011;20065;48.380;10.892;2023-05-07T05:15:46;9.67;;;7.03;;
33740;SDS011;20065;48.380;10.892;2023-05-07T05:18:32;7.90;;;6.43;;
33740;SDS011;20065;48.380;10.892;2023-05-07T05:21:19;7.50;;;6.03;;
33740;SDS011;20065;48.380;10.892;2023-05-07T05:24:08;8.17;;;6.20;;
33740;SDS011;20065;48.380;10.892;2023-05-07T05:26:54;8.50;;;6.50;;
33740;SDS011;20065;48.380;10.892;2023-05-07T05:29:40;8.30;;;6.80;;
33740;SDS011;20065;48.380;10.892;2023-05-07T05:32:27;9.30;;;7.00;;
33740;SDS011;20065;48.380;10.892;2023-05-07T05:35:15;8.87;;;6.67;;
33740;SDS011;20065;48.380;10.892;2023-05-07T05:38:03;10.17;;;7.30;;
33740;SDS011;20065;48.380;10.892;2023-05-07T05:40:49;10.23;;;7.50;;
33740;SDS011;20065;48.380;10.892;2023-05-07T05:43:35;9.77;;;7.83;;
33740;SDS011;20065;48.380;10.892;2023-05-07T05:46:21;9.30;;;7.93;;
33740;SDS011;20065;48.380;10.892;2023-05-07T05:49:10;13.00;;;7.50;;
33740;SDS011;20065;48.380;10.892;2023-05-07T05:51:57;8.70;;;6.87;;
33740;SDS011;20065;48.380;10.892;2023-05-07T05:54:45;10.47;;;7.37;;
33740;SDS011;20065;48.380;10.892;2023-05-07T05:57:31;12.70;;;7.43;;
33740;SDS011;20065;48.380;10.892;2023-05-07T06:00:17;9.20;;;6.87;;
33740;SDS011;20065;48.380;10.892;2023-05-07T06:03:07;8.83;;;7.57;;
33740;SDS011;20065;48.380;10.892;2023-05-07T06:05:54;8.33;;;6.33;;
33740;SDS011;20065;48.380;10.892;2023-05-07T06:08:41;7.77;;;6.33;;
33740;SDS011;20065;48.380;10.892;2023-05-07T06:11:29;9.27;;;6.70;;
33740;SDS011;20065;48.380;10.892;2023-05-07T06:14:16;9.20;;;7.30;;
33740;SDS011;20065;48.380;10.892;2023-05-07T06:17:03;9.00;;;7.07;;
33740;SDS011;20065;48.380;10.892;2023-05-07T06:19:49;9.67;;;7.10;;
33740;SDS011;20065;48.380;10.892;2023-05-07T06:22:37;9.83;;;7.17;;
33740;SDS011;20065;48.380;10.892;2023-05-07T06:25:24;8.83;;;6.50;;
33740;SDS011;20065;48.380;10.892;2023-05-07T06:28:10;11.00;;;7.73;;
33740;SDS011;20065;48.380;10.892;2023-05-07T06:31:10;8.80;;;7.90;;
33740;SDS011;20065;48.380;10.892;2023-05-07T06:34:03;7.57;;;6.77;;
33740;SDS011;20065;48.380;10.892;2023-05-07T06:36:56;9.93;;;7.10;;
33740;SDS011;20065;48.380;10.892;2023-05-07T06:39:52;8.73;;;7.40;;
33740;SDS011;20065;48.380;10.892;2023-05-07T06:42:38;11.20;;;7.37;;
33740;SDS011;20065;48.380;10.892;2023-05-07T06:45:59;8.20;;;6.77;;
33740;SDS011;20065;48.380;10.892;2023-05-07T06:48:46;10.30;;;7.60;;
33740;SDS011;20065;48.380;10.892;2023-05-07T06:51:36;9.77;;;8.20;;
33740;SDS011;20065;48.380;10.892;2023-05-07T06:54:23;9.93;;;7.87;;
33740;SDS011;20065;48.380;10.892;2023-05-07T06:57:09;11.37;;;7.80;;
33740;SDS011;20065;48.380;10.892;2023-05-07T06:59:55;13.93;;;6.50;;
33740;SDS011;20065;48.380;10.892;2023-05-07T07:02:42;9.87;;;7.17;;
33740;SDS011;20065;48.380;10.892;2023-05-07T07:05:30;8.27;;;7.30;;
33740;SDS011;20065;48.380;10.892;2023-05-07T07:08:17;9.47;;;7.30;;
33740;SDS011;20065;48.380;10.892;2023-05-07T07:11:05;9.77;;;8.00;;
33740;SDS011;20065;48.380;10.892;2023-05-07T07:13:51;10.20;;;8.27;;
33740;SDS011;20065;48.380;10.892;2023-05-07T07:16:40;9.90;;;8.00;;
33740;SDS011;20065;48.380;10.892;2023-05-07T07:19:26;12.73;;;8.70;;
33740;SDS011;20065;48.380;10.892;2023-05-07T07:22:14;10.47;;;8.60;;
33740;SDS011;20065;48.380;10.892;2023-05-07T07:25:01;11.37;;;8.80;;
33740;SDS011;20065;48.380;10.892;2023-05-07T07:27:48;12.13;;;9.47;;
33740;SDS011;20065;48.380;10.892;2023-05-07T07:30:35;12.33;;;8.97;;
33740;SDS011;20065;48.380;10.892;2023-05-07T07:33:22;10.13;;;7.90;;
33740;SDS011;20065;48.380;10.892;2023-05-07T07:36:09;11.70;;;9.20;;
33740;SDS011;20065;48.380;10.892;2023-05-07T07:38:55;10.93;;;8.50;;
33740;SDS011;20065;48.380;10.892;2023-05-07T07:41:41;12.30;;;9.23;;
33740;SDS011;20065;48.380;10.892;2023-05-07T07:44:28;11.40;;;9.10;;
33740;SDS011;20065;48.380;10.892;2023-05-07T07:47:19;11.67;;;7.70;;
33740;SDS011;20065;48.380;10.892;2023-05-07T07:50:07;11.50;;;9.80;;
33740;SDS011;20065;48.380;10.892;2023-05-07T07:52:54;10.93;;;8.23;;
33740;SDS011;20065;48.380;10.892;2023-05-07T07:55:40;12.90;;;8.33;;
33740;SDS011;20065;48.380;10.892;2023-05-07T07:58:27;9.93;;;8.60;;
33740;SDS011;20065;48.380;10.892;2023-05-07T08:01:14;10.97;;;8.93;;
33740;SDS011;20065;48.380;10.892;2023-05-07T08:04:02;8.87;;;7.93;;
33740;SDS011;20065;48.380;10.892;2023-05-07T08:06:53;12.37;;;8.73;;
33740;SDS011;20065;48.380;10.892;2023-05-07T08:09:40;10.30;;;8.00;;
33740;SDS011;20065;48.380;10.892;2023-05-07T08:12:27;11.30;;;9.40;;
33740;SDS011;20065;48.380;10.892;2023-05-07T08:15:15;9.13;;;8.13;;
33740;SDS011;20065;48.380;10.892;2023-05-07T08:18:03;9.20;;;7.97;;
33740;SDS011;20065;48.380;10.892;2023-05-07T08:20:50;8.77;;;7.77;;
33740;SDS011;20065;48.380;10.892;2023-05-07T08:23:40;9.67;;;8.00;;
33740;SDS011;20065;48.380;10.892;2023-05-07T08:26:28;7.80;;;7.00;;
33740;SDS011;20065;48.380;10.892;2023-05-07T08:29:14;8.50;;;7.60;;
33740;SDS011;20065;48.380;10.892;2023-05-07T08:32:00;9.37;;;6.50;;
33740;SDS011;20065;48.380;10.892;2023-05-07T08:34:47;8.57;;;7.10;;
33740;SDS011;20065;48.380;10.892;2023-05-07T08:37:34;9.77;;;7.70;;
33740;SDS011;20065;48.380;10.892;2023-05-07T08:40:22;9.27;;;6.87;;
33740;SDS011;20065;48.380;10.892;2023-05-07T08:43:12;7.97;;;5.77;;
33740;SDS011;20065;48.380;10.892;2023-05-07T08:45:59;9.10;;;6.37;;
33740;SDS011;20065;48.380;10.892;2023-05-07T08:48:51;8.00;;;6.73;;
33740;SDS011;20065;48.380;10.892;2023-05-07T08:51:38;6.00;;;4.87;;
33740;SDS011;20065;48.380;10.892;2023-05-07T08:54:25;6.80;;;5.50;;
33740;SDS011;20065;48.380;10.892;2023-05-07T08:57:13;6.30;;;5.47;;
33740;SDS011;20065;48.380;10.892;2023-05-07T08:59:59;7.17;;;5.97;;
33740;SDS011;20065;48.380;10.892;2023-05-07T09:02:45;8.10;;;5.70;;
33740;SDS011;20065;48.380;10.892;2023-05-07T09:05:32;7.83;;;5.03;;
33740;SDS011;20065;48.380;10.892;2023-05-07T09:08:19;8.60;;;4.50;;
33740;SDS011;20065;48.380;10.892;2023-05-07T09:11:11;6.23;;;5.00;;
33740;SDS011;20065;48.380;10.892;2023-05-07T09:13:58;7.80;;;5.20;;
33740;SDS011;20065;48.380;10.892;2023-05-07T09:16:52;8.07;;;6.40;;
33740;SDS011;20065;48.380;10.892;2023-05-07T09:19:39;7.07;;;4.53;;
33740;SDS011;20065;48.380;10.892;2023-05-07T09:22:33;9.07;;;4.10;;
33740;SDS011;20065;48.380;10.892;2023-05-07T09:25:29;5.90;;;3.77;;
33740;SDS011;20065;48.380;10.892;2023-05-07T09:28:16;6.70;;;3.57;;
33740;SDS011;20065;48.380;10.892;2023-05-07T09:31:04;4.47;;;2.90;;
33740;SDS011;20065;48.380;10.892;2023-05-07T09:34:00;4.83;;;3.07;;
33740;SDS011;20065;48.380;10.892;2023-05-07T09:36:49;4.30;;;3.20;;
33740;SDS011;20065;48.380;10.892;2023-05-07T09:39:43;5.47;;;2.70;;
33740;SDS011;20065;48.380;10.892;2023-05-07T09:42:33;5.23;;;3.23;;
33740;SDS011;20065;48.380;10.892;2023-05-07T09:45:22;4.17;;;2.43;;
33740;SDS011;20065;48.380;10.892;2023-05-07T09:48:12;5.90;;;2.60;;
33740;SDS011;20065;48.380;10.892;2023-05-07T09:51:03;6.27;;;3.43;;
33740;SDS011;20065;48.380;10.892;2023-05-07T09:53:57;5.53;;;2.27;;
33740;SDS011;20065;48.380;10.892;2023-05-07T09:56:52;4.00;;;2.10;;
33740;SDS011;20065;48.380;10.892;2023-05-07T09:59:44;3.37;;;2.00;;
33740;SDS011;20065;48.380;10.892;2023-05-07T10:02:35;3.07;;;1.93;;
33740;SDS011;20065;48.380;10.892;2023-05-07T10:05:23;4.33;;;1.90;;
33740;SDS011;20065;48.380;10.892;2023-05-07T10:08:13;3.40;;;1.87;;
33740;SDS011;20065;48.380;10.892;2023-05-07T10:11:05;4.57;;;2.60;;
33740;SDS011;20065;48.380;10.892;2023-05-07T10:13:52;3.87;;;2.00;;
33740;SDS011;20065;48.380;10.892;2023-05-07T10:16:39;6.00;;;2.03;;
33740;SDS011;20065;48.380;10.892;2023-05-07T10:19:31;4.33;;;1.97;;
33740;SDS011;20065;48.380;10.892;2023-05-07T10:22:25;4.50;;;1.70;;
33740;SDS011;20065;48.380;10.892;2023-05-07T10:25:18;2.93;;;1.53;;
33740;SDS011;20065;48.380;10.892;2023-05-07T10:28:12;3.23;;;1.70;;
33740;SDS011;20065;48.380;10.892;2023-05-07T10:33:57;5.60;;;1.33;;
33740;SDS011;20065;48.380;10.892;2023-05-07T10:36:45;3.80;;;1.60;;
33740;SDS011;20065;48.380;10.892;2023-05-07T10:39:34;4.23;;;1.50;;
33740;SDS011;20065;48.380;10.892;2023-05-07T10:42:22;4.00;;;2.30;;
33740;SDS011;20065;48.380;10.892;2023-05-07T10:45:15;3.00;;;1.80;;
33740;SDS011;20065;48.380;10.892;2023-05-07T10:48:12;3.57;;;1.53;;
33740;SDS011;20065;48.380;10.892;2023-05-07T10:51:20;3.27;;;1.53;;
33740;SDS011;20065;48.380;10.892;2023-05-07T10:56:57;4.00;;;1.47;;
33740;SDS011;20065;48.380;10.892;2023-05-07T11:03:10;4.00;;;1.20;;
33740;SDS011;20065;48.380;10.892;2023-05-07T11:06:13;3.23;;;1.30;;
33740;SDS011;20065;48.380;10.892;2023-05-07T11:09:23;3.60;;;1.70;;
33740;SDS011;20065;48.380;10.892;2023-05-07T11:12:15;3.63;;;2.00;;
33740;SDS011;20065;48.380;10.892;2023-05-07T11:15:10;4.30;;;1.60;;
33740;SDS011;20065;48.380;10.892;2023-05-07T11:17:58;4.00;;;1.53;;
33740;SDS011;20065;48.380;10.892;2023-05-07T11:20:54;3.30;;;1.90;;
33740;SDS011;20065;48.380;10.892;2023-05-07T11:24:07;5.37;;;2.03;;
33740;SDS011;20065;48.380;10.892;2023-05-07T11:27:02;3.70;;;1.80;;
33740;SDS011;20065;48.380;10.892;2023-05-07T11:29:50;2.90;;;1.60;;
33740;SDS011;20065;48.380;10.892;2023-05-07T11:32:47;3.60;;;1.43;;
33740;SDS011;20065;48.380;10.892;2023-05-07T11:35:35;4.90;;;1.80;;
33740;SDS011;20065;48.380;10.892;2023-05-07T11:38:24;2.90;;;1.50;;
33740;SDS011;20065;48.380;10.892;2023-05-07T11:41:11;4.90;;;1.33;;
33740;SDS011;20065;48.380;10.892;2023-05-07T11:43:58;2.60;;;1.60;;
33740;SDS011;20065;48.380;10.892;2023-05-07T11:46:45;3.20;;;1.70;;
33740;SDS011;20065;48.380;10.892;2023-05-07T11:49:31;4.30;;;1.90;;
33740;SDS011;20065;48.380;10.892;2023-05-07T11:53:06;2.63;;;1.70;;
33740;SDS011;20065;48.380;10.892;2023-05-07T11:56:09;3.07;;;1.70;;
33740;SDS011;20065;48.380;10.892;2023-05-07T11:59:02;3.20;;;1.80;;
33740;SDS011;20065;48.380;10.892;2023-05-07T12:01:48;4.43;;;1.90;;
33740;SDS011;20065;48.380;10.892;2023-05-07T12:04:34;8.13;;;1.90;;
33740;SDS011;20065;48.380;10.892;2023-05-07T12:07:21;2.80;;;1.57;;
33740;SDS011;20065;48.380;10.892;2023-05-07T12:10:09;6.07;;;1.87;;
33740;SDS011;20065;48.380;10.892;2023-05-07T12:12:57;3.50;;;2.10;;
33740;SDS011;20065;48.380;10.892;2023-05-07T12:15:43;5.33;;;2.30;;
33740;SDS011;20065;48.380;10.892;2023-05-07T12:18:29;4.70;;;2.10;;
33740;SDS011;20065;48.380;10.892;2023-05-07T12:21:16;3.87;;;2.03;;
33740;SDS011;20065;48.380;10.892;2023-05-07T12:24:03;3.00;;;1.80;;
33740;SDS011;20065;48.380;10.892;2023-05-07T12:26:50;3.43;;;1.87;;
33740;SDS011;20065;48.380;10.892;2023-05-07T12:29:36;7.37;;;1.93;;
33740;SDS011;20065;48.380;10.892;2023-05-07T12:32:25;3.57;;;2.27;;
33740;SDS011;20065;48.380;10.892;2023-05-07T12:35:11;4.87;;;2.70;;
33740;SDS011;20065;48.380;10.892;2023-05-07T12:38:00;3.90;;;1.97;;
33740;SDS011;20065;48.380;10.892;2023-05-07T12:40:50;6.33;;;2.50;;
33740;SDS011;20065;48.380;10.892;2023-05-07T12:43:39;4.13;;;2.17;;
33740;SDS011;20065;48.380;10.892;2023-05-07T12:46:29;3.80;;;2.00;;
33740;SDS011;20065;48.380;10.892;2023-05-07T12:49:15;3.23;;;2.17;;
33740;SDS011;20065;48.380;10.892;2023-05-07T12:52:03;3.83;;;2.30;;
33740;SDS011;20065;48.380;10.892;2023-05-07T12:54:50;4.10;;;2.13;;
33740;SDS011;20065;48.380;10.892;2023-05-07T12:57:45;4.13;;;2.23;;
33740;SDS011;20065;48.380;10.892;2023-05-07T13:00:36;4.03;;;2.00;;
33740;SDS011;20065;48.380;10.892;2023-05-07T13:03:32;4.20;;;2.67;;
33740;SDS011;20065;48.380;10.892;2023-05-07T13:06:21;5.17;;;2.20;;
33740;SDS011;20065;48.380;10.892;2023-05-07T13:09:11;5.60;;;2.53;;
33740;SDS011;20065;48.380;10.892;2023-05-07T13:11:58;3.60;;;2.00;;
33740;SDS011;20065;48.380;10.892;2023-05-07T13:14:47;3.90;;;2.17;;
33740;SDS011;20065;48.380;10.892;2023-05-07T13:17:33;3.80;;;2.23;;
33740;SDS011;20065;48.380;10.892;2023-05-07T13:20:19;4.07;;;1.97;;
33740;SDS011;20065;48.380;10.892;2023-05-07T13:23:05;4.83;;;2.17;;
33740;SDS011;20065;48.380;10.892;2023-05-07T13:25:51;5.40;;;2.20;;
33740;SDS011;20065;48.380;10.892;2023-05-07T13:28:41;5.53;;;2.30;;
33740;SDS011;20065;48.380;10.892;2023-05-07T13:31:28;6.07;;;1.80;;
33740;SDS011;20065;48.380;10.892;2023-05-07T13:34:15;4.73;;;1.87;;
33740;SDS011;20065;48.380;10.892;2023-05-07T13:37:01;3.70;;;2.07;;
33740;SDS011;20065;48.380;10.892;2023-05-07T13:39:47;4.33;;;2.83;;
33740;SDS011;20065;48.380;10.892;2023-05-07T13:42:34;3.57;;;2.13;;
33740;SDS011;20065;48.380;10.892;2023-05-07T13:45:20;3.60;;;2.30;;
33740;SDS011;20065;48.380;10.892;2023-05-07T13:48:06;9.30;;;2.00;;
33740;SDS011;20065;48.380;10.892;2023-05-07T13:50:52;4.80;;;2.50;;
33740;SDS011;20065;48.380;10.892;2023-05-07T13:53:39;4.67;;;2.00;;
33740;SDS011;20065;48.380;10.892;2023-05-07T13:56:25;5.67;;;2.10;;
33740;SDS011;20065;48.380;10.892;2023-05-07T13:59:11;3.80;;;2.03;;
33740;SDS011;20065;48.380;10.892;2023-05-07T14:01:59;6.40;;;2.67;;
33740;SDS011;20065;48.380;10.892;2023-05-07T14:04:45;3.13;;;1.90;;
33740;SDS011;20065;48.380;10.892;2023-05-07T14:07:32;3.93;;;2.30;;
33740;SDS011;20065;48.380;10.892;2023-05-07T14:10:18;5.20;;;2.10;;
33740;SDS011;20065;48.380;10.892;2023-05-07T14:13:05;4.57;;;2.20;;
33740;SDS011;20065;48.380;10.892;2023-05-07T14:15:55;5.73;;;2.10;;
33740;SDS011;20065;48.380;10.892;2023-05-07T14:18:43;3.60;;;2.33;;
33740;SDS011;20065;48.380;10.892;2023-05-07T14:21:31;5.87;;;2.40;;
33740;SDS011;20065;48.380;10.892;2023-05-07T14:24:17;4.97;;;2.40;;
33740;SDS011;20065;48.380;10.892;2023-05-07T14:27:03;4.60;;;2.57;;
33740;SDS011;20065;48.380;10.892;2023-05-07T14:29:49;4.10;;;1.97;;
33740;SDS011;20065;48.380;10.892;2023-05-07T14:32:53;4.50;;;1.80;;
33740;SDS011;20065;48.380;10.892;2023-05-07T14:35:39;3.50;;;2.00;;
33740;SDS011;20065;48.380;10.892;2023-05-07T14:38:26;4.50;;;2.00;;
33740;SDS011;20065;48.380;10.892;2023-05-07T14:41:12;3.80;;;2.17;;
33740;SDS011;20065;48.380;10.892;2023-05-07T14:47:01;3.97;;;2.07;;
33740;SDS011;20065;48.380;10.892;2023-05-07T14:49:55;3.63;;;2.03;;
33740;SDS011;20065;48.380;10.892;2023-05-07T14:52:43;3.70;;;2.20;;
33740;SDS011;20065;48.380;10.892;2023-05-07T14:55:43;4.90;;;2.20;;
33740;SDS011;20065;48.380;10.892;2023-05-07T14:58:29;4.13;;;2.50;;
33740;SDS011;20065;48.380;10.892;2023-05-07T15:01:16;5.23;;;2.20;;
33740;SDS011;20065;48.380;10.892;2023-05-07T15:04:05;3.97;;;2.20;;
33740;SDS011;20065;48.380;10.892;2023-05-07T15:06:52;4.73;;;1.87;;
33740;SDS011;20065;48.380;10.892;2023-05-07T15:09:45;4.30;;;2.27;;
33740;SDS011;20065;48.380;10.892;2023-05-07T15:12:31;3.90;;;2.40;;
33740;SDS011;20065;48.380;10.892;2023-05-07T15:15:17;4.43;;;2.03;;
33740;SDS011;20065;48.380;10.892;2023-05-07T15:18:04;3.67;;;2.00;;
33740;SDS011;20065;48.380;10.892;2023-05-07T15:20:50;3.53;;;2.47;;
33740;SDS011;20065;48.380;10.892;2023-05-07T15:23:36;3.53;;;2.20;;
33740;SDS011;20065;48.380;10.892;2023-05-07T15:26:22;4.80;;;3.30;;
33740;SDS011;20065;48.380;10.892;2023-05-07T15:29:08;4.90;;;2.60;;
33740;SDS011;20065;48.380;10.892;2023-05-07T15:31:55;4.03;;;1.80;;
33740;SDS011;20065;48.380;10.892;2023-05-07T15:34:54;4.53;;;2.30;;
33740;SDS011;20065;48.380;10.892;2023-05-07T15:37:54;3.87;;;2.33;;
33740;SDS011;20065;48.380;10.892;2023-05-07T15:40:41;3.40;;;2.00;;
33740;SDS011;20065;48.380;10.892;2023-05-07T15:43:27;4.67;;;2.43;;
33740;SDS011;20065;48.380;10.892;2023-05-07T15:46:17;4.10;;;2.40;;
33740;SDS011;20065;48.380;10.892;2023-05-07T15:49:11;4.40;;;2.20;;
33740;SDS011;20065;48.380;10.892;2023-05-07T15:51:57;7.30;;;2.10;;
33740;SDS011;20065;48.380;10.892;2023-05-07T15:54:43;2.90;;;2.00;;
33740;SDS011;20065;48.380;10.892;2023-05-07T15:57:29;5.43;;;1.97;;
33740;SDS011;20065;48.380;10.892;2023-05-07T16:00:16;4.00;;;2.20;;
33740;SDS011;20065;48.380;10.892;2023-05-07T16:03:03;4.40;;;2.50;;
33740;SDS011;20065;48.380;10.892;2023-05-07T16:05:50;4.07;;;2.50;;
33740;SDS011;20065;48.380;10.892;2023-05-07T16:08:36;6.30;;;2.20;;
33740;SDS011;20065;48.380;10.892;2023-05-07T16:11:27;4.10;;;2.47;;
33740;SDS011;20065;48.380;10.892;2023-05-07T16:14:25;4.97;;;2.80;;
33740;SDS011;20065;48.380;10.892;2023-05-07T16:17:12;3.60;;;2.30;;
33740;SDS011;20065;48.380;10.892;2023-05-07T16:20:02;5.07;;;2.23;;
33740;SDS011;20065;48.380;10.892;2023-05-07T16:22:59;4.23;;;2.90;;
33740;SDS011;20065;48.380;10.892;2023-05-07T16:25:55;4.20;;;2.27;;
33740;SDS011;20065;48.380;10.892;2023-05-07T16:28:42;4.00;;;2.33;;
33740;SDS011;20065;48.380;10.892;2023-05-07T16:31:28;3.77;;;2.43;;
33740;SDS011;20065;48.380;10.892;2023-05-07T16:34:14;3.80;;;2.47;;
33740;SDS011;20065;48.380;10.892;2023-05-07T16:37:02;4.40;;;2.33;;
33740;SDS011;20065;48.380;10.892;2023-05-07T16:39:48;5.53;;;2.70;;
33740;SDS011;20065;48.380;10.892;2023-05-07T16:42:35;6.40;;;2.80;;
33740;SDS011;20065;48.380;10.892;2023-05-07T16:45:22;5.23;;;2.70;;
33740;SDS011;20065;48.380;10.892;2023-05-07T16:48:09;4.30;;;2.50;;